createdAt,value
2023-05-12T15:19:28.152Z,3.75
2023-05-12T15:21:54.596Z,3.95
2023-05-12T15:24:41.241Z,3.30
2023-05-12T15:27:19.412Z,3.85
2023-05-12T15:33:56.354Z,2.00
2023-05-12T15:34:57.767Z,2.83
2023-05-12T15:35:59.489Z,1.40
2023-05-12T15:37:00.896Z,1.92
2023-05-12T15:38:02.391Z,5.53
2023-05-12T15:39:03.865Z,2.67
2023-05-12T15:40:05.274Z,1.70
2023-05-12T15:41:06.714Z,2.17
2023-05-12T15:42:08.547Z,1.40
2023-05-12T15:43:10.064Z,1.38
2023-05-12T15:44:11.512Z,1.50
2023-05-12T15:45:12.959Z,1.48
2023-05-12T15:46:14.840Z,1.30
2023-05-12T15:47:16.402Z,1.40
2023-05-12T15:48:17.886Z,1.50
2023-05-12T15:49:19.438Z,1.40
2023-05-12T15:50:20.858Z,1.25
2023-05-12T15:51:22.277Z,1.40
2023-05-12T15:53:07.343Z,1.20
2023-05-12T15:54:09.628Z,1.80
2023-05-12T15:55:11.346Z,1.48
2023-05-12T15:56:12.742Z,1.65
2023-05-12T15:57:14.203Z,1.60
2023-05-12T15:58:15.654Z,1.45
2023-05-12T15:59:17.088Z,1.30
2023-05-12T16:00:18.585Z,1.27
2023-05-12T16:01:20.105Z,1.00
2023-05-12T16:02:21.525Z,1.05
2023-05-12T16:03:23.113Z,1.40
2023-05-12T16:04:24.758Z,1.38
2023-05-12T16:05:26.176Z,1.27
2023-05-12T16:06:27.613Z,1.15
2023-05-12T16:07:29.251Z,1.10
2023-05-12T16:08:30.737Z,1.80
2023-05-12T16:09:32.130Z,1.30
2023-05-12T16:10:33.562Z,1.60
2023-05-12T16:11:35.015Z,1.20
2023-05-12T16:12:36.429Z,1.23
2023-05-12T16:13:37.834Z,1.20
2023-05-12T16:14:39.285Z,1.33
2023-05-12T16:15:40.702Z,1.35
2023-05-12T16:16:42.189Z,1.52
2023-05-12T16:17:43.716Z,1.50
2023-05-12T16:18:45.198Z,1.27
2023-05-12T16:19:46.672Z,1.15
2023-05-12T16:20:48.169Z,1.17
2023-05-12T16:21:49.620Z,1.05
2023-05-12T16:22:51.056Z,1.10
2023-05-12T16:23:52.796Z,1.20
2023-05-12T16:24:54.265Z,1.15
2023-05-12T16:25:55.662Z,1.10
2023-05-12T16:26:57.092Z,1.00
2023-05-12T16:27:58.540Z,1.02
2023-05-12T16:28:59.948Z,1.20
2023-05-12T16:30:01.357Z,1.00
2023-05-12T16:31:02.745Z,1.17
2023-05-12T16:32:04.479Z,1.15
2023-05-12T16:33:05.952Z,1.42
2023-05-12T16:34:07.399Z,1.48
2023-05-12T16:35:08.836Z,1.40
2023-05-12T16:36:10.308Z,1.10
2023-05-12T16:37:11.752Z,1.33
2023-05-12T16:38:13.185Z,1.20
2023-05-12T16:39:14.597Z,1.30
2023-05-12T16:40:16.041Z,1.40
2023-05-12T16:41:17.502Z,1.60
2023-05-12T16:42:18.955Z,1.55
2023-05-12T16:43:21.770Z,1.20
2023-05-12T16:44:23.169Z,1.17
2023-05-12T16:45:24.596Z,1.42
2023-05-12T16:46:26.081Z,1.20
2023-05-12T16:47:27.560Z,1.10
2023-05-12T16:48:29.062Z,1.38
2023-05-12T16:49:30.474Z,1.10
2023-05-12T16:50:31.887Z,1.27
2023-05-12T16:51:33.371Z,1.40
2023-05-12T16:52:35.315Z,1.40
2023-05-12T16:53:36.780Z,1.70
2023-05-12T16:54:38.192Z,1.33
2023-05-12T16:55:39.643Z,1.40
2023-05-12T16:56:41.054Z,1.30
2023-05-12T16:57:43.524Z,1.27
2023-05-12T16:58:45.108Z,1.02
2023-05-12T16:59:46.549Z,1.23
2023-05-12T17:00:47.978Z,1.63
2023-05-12T17:01:49.423Z,1.23
2023-05-12T17:02:50.925Z,6.83
2023-05-12T17:03:52.527Z,2.25
2023-05-12T17:04:54.256Z,3.47
2023-05-12T17:05:55.768Z,2.72
2023-05-12T17:06:57.364Z,5.28
2023-05-12T17:07:58.919Z,3.15
2023-05-12T17:09:00.525Z,2.47
2023-05-12T17:10:02.099Z,13.07
2023-05-12T17:11:03.592Z,15.60
2023-05-12T17:12:05.026Z,7.95
2023-05-12T17:13:06.467Z,7.45
2023-05-12T17:14:07.909Z,2.22
2023-05-12T17:15:09.398Z,4.68
2023-05-12T17:16:10.924Z,12.02
2023-05-12T17:17:12.350Z,2.22
2023-05-12T17:18:13.806Z,3.67
2023-05-12T17:19:15.288Z,1.75
2023-05-12T17:20:16.774Z,1.10
2023-05-12T17:21:18.156Z,0.98
2023-05-12T17:22:19.589Z,1.10
2023-05-12T17:23:21.003Z,1.15
2023-05-12T17:24:22.430Z,1.33
2023-05-12T17:25:23.930Z,1.33
2023-05-12T17:26:25.368Z,1.10
2023-05-12T17:27:26.783Z,1.20
2023-05-12T17:28:28.241Z,0.90
2023-05-12T17:29:29.667Z,0.90
2023-05-12T17:30:31.127Z,0.88
2023-05-12T17:31:32.651Z,0.80
2023-05-12T17:32:34.123Z,1.13
2023-05-12T17:33:35.554Z,0.88
2023-05-12T17:34:36.985Z,1.10
2023-05-12T17:35:38.815Z,0.90
2023-05-12T17:36:40.264Z,0.95
2023-05-12T17:37:41.743Z,0.82
2023-05-12T17:38:43.186Z,1.00
2023-05-12T17:39:44.608Z,0.70
2023-05-12T17:40:46.062Z,0.77
2023-05-12T17:41:47.498Z,0.85
2023-05-12T17:42:48.925Z,0.77
2023-05-12T17:43:50.326Z,0.65
2023-05-12T17:44:51.738Z,0.80
2023-05-12T17:45:53.184Z,1.23
2023-05-12T17:46:54.663Z,0.70
2023-05-12T17:47:56.175Z,0.70
2023-05-12T17:48:57.642Z,0.80
2023-05-12T17:49:59.042Z,0.70
2023-05-12T17:51:00.464Z,0.80
2023-05-12T17:52:01.899Z,0.65
2023-05-12T17:53:03.338Z,0.85
2023-05-12T17:54:04.767Z,0.80
2023-05-12T17:55:06.207Z,0.80
2023-05-12T17:56:07.620Z,0.70
2023-05-12T17:57:09.029Z,0.80
2023-05-12T17:58:10.481Z,0.80
2023-05-12T17:59:11.881Z,1.17
2023-05-12T18:00:13.350Z,0.77
2023-05-12T18:01:14.839Z,0.80
2023-05-12T18:02:16.376Z,0.75
2023-05-12T18:03:17.930Z,1.08
2023-05-12T18:04:19.550Z,1.05
2023-05-12T18:05:21.308Z,0.90
2023-05-12T18:06:22.893Z,1.20
2023-05-12T18:07:24.315Z,1.10
2023-05-12T18:08:25.779Z,0.77
2023-05-12T18:09:27.200Z,0.80
2023-05-12T18:10:28.677Z,0.70
2023-05-12T18:11:30.128Z,0.90
2023-05-12T18:12:31.587Z,0.80
2023-05-12T18:13:33.031Z,0.82
2023-05-12T18:14:34.418Z,0.77
2023-05-12T18:15:35.896Z,1.13
2023-05-12T18:16:37.397Z,0.70
2023-05-12T18:17:38.920Z,0.70
2023-05-12T18:18:40.400Z,0.80
2023-05-12T18:19:41.917Z,1.00
2023-05-12T18:20:43.332Z,0.80
2023-05-12T18:21:44.748Z,0.90
2023-05-12T18:22:46.174Z,0.93
2023-05-12T18:23:47.593Z,1.00
2023-05-12T18:24:49.071Z,0.70
2023-05-12T18:25:50.492Z,0.80
2023-05-12T18:26:51.918Z,0.80
2023-05-12T18:27:53.344Z,1.38
2023-05-12T18:28:54.789Z,0.82
2023-05-12T18:29:56.443Z,1.00
2023-05-12T18:31:00.232Z,0.85
2023-05-12T18:32:04.724Z,0.75
2023-05-12T18:33:06.169Z,0.75
2023-05-12T18:34:07.629Z,0.70
2023-05-12T18:35:09.101Z,0.90
2023-05-12T18:36:10.547Z,0.93
2023-05-12T18:37:11.966Z,0.60
2023-05-12T18:38:13.388Z,1.60
2023-05-12T18:39:15.768Z,1.20
2023-05-12T18:40:18.133Z,1.02
2023-05-12T18:41:19.546Z,1.85
2023-05-12T18:42:21.001Z,1.90
2023-05-12T18:43:22.437Z,1.73
2023-05-12T18:44:23.842Z,1.92
2023-05-12T18:45:25.281Z,1.30
2023-05-12T18:46:26.781Z,1.00
2023-05-12T18:47:28.238Z,1.50
2023-05-12T18:48:29.694Z,1.52
2023-05-12T18:49:31.118Z,1.45
2023-05-12T18:50:32.575Z,1.73
2023-05-12T18:51:33.994Z,1.23
2023-05-12T18:52:35.500Z,0.75
2023-05-12T18:53:36.933Z,1.88
2023-05-12T18:54:38.372Z,1.30
2023-05-12T18:55:39.823Z,2.70
2023-05-12T18:56:41.216Z,3.10
2023-05-12T18:57:42.656Z,2.45
2023-05-12T18:58:44.114Z,1.50
2023-05-12T18:59:45.532Z,0.95
2023-05-12T19:00:46.978Z,1.05
2023-05-12T19:01:48.442Z,0.75
2023-05-12T19:02:49.948Z,1.05
2023-05-12T19:03:51.404Z,0.90
2023-05-12T19:04:52.909Z,1.10
2023-05-12T19:05:54.395Z,0.60
2023-05-12T19:06:55.791Z,0.98
2023-05-12T19:07:57.215Z,0.80
2023-05-12T19:08:58.628Z,0.82
2023-05-12T19:10:00.048Z,1.52
2023-05-12T19:11:01.533Z,1.30
2023-05-12T19:12:03.017Z,1.40
2023-05-12T19:13:04.519Z,1.70
2023-05-12T19:14:05.931Z,1.15
2023-05-12T19:15:07.378Z,0.90
2023-05-12T19:16:08.869Z,1.27
2023-05-12T19:17:10.319Z,1.48
2023-05-12T19:18:11.737Z,1.15
2023-05-12T19:19:13.259Z,1.33
2023-05-12T19:20:14.755Z,1.40
2023-05-12T19:21:16.406Z,1.10
2023-05-12T19:22:17.849Z,1.30
2023-05-12T19:23:19.283Z,1.15
2023-05-12T19:24:20.732Z,0.80
2023-05-12T19:25:22.376Z,0.90
2023-05-12T19:26:24.000Z,0.88
2023-05-12T19:27:25.424Z,0.70
2023-05-12T19:28:26.874Z,0.95
2023-05-12T19:29:28.269Z,1.05
2023-05-12T19:30:29.665Z,1.23
2023-05-12T19:31:31.578Z,1.05
2023-05-12T19:32:33.095Z,1.17
2023-05-12T19:33:34.648Z,1.30
2023-05-12T19:34:36.071Z,1.52
2023-05-12T19:35:37.679Z,0.80
2023-05-12T19:36:39.211Z,0.75
2023-05-12T19:37:40.632Z,0.60
2023-05-12T19:38:42.057Z,0.90
2023-05-12T19:39:43.446Z,0.82
2023-05-12T19:40:44.838Z,0.80
2023-05-12T19:41:46.308Z,0.75
2023-05-12T19:42:47.737Z,0.90
2023-05-12T19:43:49.209Z,0.88
2023-05-12T19:44:50.622Z,0.80
2023-05-12T19:45:52.042Z,0.90
2023-05-12T19:46:53.542Z,0.70
2023-05-12T19:47:54.963Z,0.80
2023-05-12T19:48:56.418Z,0.70
2023-05-12T19:49:57.844Z,0.80
2023-05-12T19:50:59.249Z,0.60
2023-05-12T19:52:01.076Z,0.70
2023-05-12T19:53:02.759Z,0.80
2023-05-12T19:54:04.239Z,0.60
2023-05-12T19:55:05.660Z,0.60
2023-05-12T19:56:07.066Z,0.70
2023-05-12T19:57:08.492Z,0.80
2023-05-12T19:58:09.901Z,1.15
2023-05-12T19:59:11.349Z,1.30
2023-05-12T20:00:12.787Z,3.42
2023-05-12T20:01:14.300Z,5.70
2023-05-12T20:02:15.845Z,3.20
2023-05-12T20:03:17.417Z,3.80
2023-05-12T20:04:18.922Z,6.75
2023-05-12T20:05:20.555Z,3.40
2023-05-12T20:06:22.114Z,2.97
2023-05-12T20:07:23.590Z,2.47
2023-05-12T20:08:25.040Z,2.13
2023-05-12T20:09:26.651Z,2.20
2023-05-12T20:10:28.052Z,2.72
2023-05-12T20:11:29.539Z,1.77
2023-05-12T20:12:30.970Z,1.63
2023-05-12T20:13:32.420Z,1.45
2023-05-12T20:14:33.830Z,1.67
2023-05-12T20:15:35.226Z,1.63
2023-05-12T20:16:36.706Z,1.40
2023-05-12T20:17:38.259Z,1.50
2023-05-12T20:18:39.795Z,0.90
2023-05-12T20:19:41.246Z,0.90
2023-05-12T20:20:42.648Z,1.50
2023-05-12T20:21:44.140Z,1.40
2023-05-12T20:22:45.689Z,1.20
2023-05-12T20:23:47.117Z,1.00
2023-05-12T20:24:48.536Z,0.90
2023-05-12T20:25:49.976Z,0.70
2023-05-12T20:26:51.375Z,0.80
2023-05-12T20:27:52.774Z,0.93
2023-05-12T20:28:54.236Z,0.75
2023-05-12T20:29:55.653Z,0.82
2023-05-12T20:30:57.130Z,0.90
2023-05-12T20:31:58.542Z,0.70
2023-05-12T20:33:00.009Z,0.60
2023-05-12T20:34:01.537Z,0.90
2023-05-12T20:35:02.961Z,0.90
2023-05-12T20:36:04.858Z,1.00
2023-05-12T20:37:06.292Z,0.80
2023-05-12T20:38:07.732Z,0.68
2023-05-12T20:39:09.169Z,0.77
2023-05-12T20:40:10.598Z,0.93
2023-05-12T20:41:12.079Z,0.75
2023-05-12T20:42:13.478Z,0.90
2023-05-12T20:43:14.908Z,0.77
2023-05-12T20:44:16.320Z,0.70
2023-05-12T20:45:17.740Z,0.70
2023-05-12T20:46:19.249Z,0.80
2023-05-12T20:47:20.801Z,0.82
2023-05-12T20:48:22.325Z,1.00
2023-05-12T20:49:23.821Z,0.82
2023-05-12T20:50:25.239Z,0.82
2023-05-12T20:51:26.682Z,0.90
2023-05-12T20:52:28.111Z,1.10
2023-05-12T20:53:29.887Z,0.70
2023-05-12T20:54:31.343Z,0.80
2023-05-12T20:55:32.776Z,0.80
2023-05-12T20:56:34.224Z,1.00
2023-05-12T20:57:35.632Z,0.65
2023-05-12T20:58:37.084Z,0.68
2023-05-12T20:59:38.490Z,1.00
2023-05-12T21:00:39.904Z,1.00
2023-05-12T21:01:41.417Z,0.77
2023-05-12T21:02:42.917Z,0.80
2023-05-12T21:03:44.502Z,1.02
2023-05-12T21:04:45.911Z,0.90
2023-05-12T21:05:47.323Z,0.93
2023-05-12T21:06:48.758Z,1.10
2023-05-12T21:07:50.162Z,0.85
2023-05-12T21:08:51.588Z,1.00
2023-05-12T21:09:52.986Z,1.10
2023-05-12T21:10:54.429Z,0.95
2023-05-12T21:11:55.869Z,0.80
2023-05-12T21:12:57.273Z,0.95
2023-05-12T21:13:58.727Z,1.15
2023-05-12T21:15:00.193Z,1.00
2023-05-12T21:16:01.643Z,0.88
2023-05-12T21:17:03.235Z,1.00
2023-05-12T21:18:04.799Z,0.95
2023-05-12T21:19:06.302Z,1.10
2023-05-12T21:20:07.782Z,0.95
2023-05-12T21:21:09.223Z,1.20
2023-05-12T21:22:10.649Z,0.90
2023-05-12T21:23:12.087Z,1.00
2023-05-12T21:24:13.514Z,0.80
2023-05-12T21:25:14.901Z,1.00
2023-05-12T21:26:16.306Z,1.50
2023-05-12T21:27:17.701Z,1.10
2023-05-12T21:28:19.106Z,1.23
2023-05-12T21:29:20.589Z,1.10
2023-05-12T21:30:22.224Z,1.00
2023-05-12T21:31:23.890Z,0.82
2023-05-12T21:32:25.312Z,1.70
2023-05-12T21:33:26.755Z,1.13
2023-05-12T21:34:28.220Z,1.30
2023-05-12T21:35:29.657Z,1.00
2023-05-12T21:36:31.098Z,1.00
2023-05-12T21:37:32.570Z,1.08
2023-05-12T21:38:34.019Z,1.00
2023-05-12T21:39:35.485Z,1.20
2023-05-12T21:40:36.926Z,1.30
2023-05-12T21:41:38.346Z,1.30
2023-05-12T21:42:39.751Z,1.10
2023-05-12T21:43:41.166Z,2.58
2023-05-12T21:44:42.604Z,1.88
2023-05-12T21:45:44.075Z,1.48
2023-05-12T21:46:45.534Z,1.20
2023-05-12T21:47:46.941Z,0.98
2023-05-12T21:48:48.361Z,0.90
2023-05-12T21:49:49.793Z,1.05
2023-05-12T21:50:51.235Z,0.95
2023-05-12T21:51:52.662Z,1.35
2023-05-12T21:52:54.066Z,1.33
2023-05-12T21:53:55.976Z,0.90
2023-05-12T21:54:57.485Z,1.15
2023-05-12T21:55:58.927Z,1.00
2023-05-12T21:57:00.468Z,1.00
2023-05-12T21:58:01.873Z,1.02
2023-05-12T21:59:03.302Z,0.82
2023-05-12T22:00:04.723Z,1.23
2023-05-12T22:01:06.200Z,0.90
2023-05-12T22:02:07.727Z,1.10
2023-05-12T22:03:09.336Z,1.10
2023-05-12T22:04:11.011Z,1.38
2023-05-12T22:05:12.551Z,1.00
2023-05-12T22:06:13.959Z,0.88
2023-05-12T22:07:15.390Z,1.15
2023-05-12T22:08:16.830Z,1.10
2023-05-12T22:09:18.261Z,1.40
2023-05-12T22:10:19.854Z,1.10
2023-05-12T22:11:21.365Z,1.10
2023-05-12T22:12:23.557Z,1.63
2023-05-12T22:13:24.997Z,1.15
2023-05-12T22:14:26.488Z,1.17
2023-05-12T22:15:27.994Z,1.17
2023-05-12T22:16:40.812Z,1.10
2023-05-12T22:17:43.215Z,1.10
2023-05-12T22:18:44.747Z,1.25
2023-05-12T22:19:46.249Z,1.20
2023-05-12T22:20:47.743Z,1.30
2023-05-12T22:21:49.151Z,1.17
2023-05-12T22:22:50.983Z,0.98
2023-05-12T22:23:52.386Z,1.15
2023-05-12T22:24:53.853Z,1.20
2023-05-12T22:25:55.290Z,1.13
2023-05-12T22:26:56.723Z,1.42
2023-05-12T22:27:58.154Z,1.10
2023-05-12T22:28:59.613Z,1.13
2023-05-12T22:30:01.058Z,1.30
2023-05-12T22:31:02.595Z,1.08
2023-05-12T22:32:04.069Z,1.10
2023-05-12T22:33:05.588Z,1.30
2023-05-12T22:34:07.087Z,1.23
2023-05-12T22:35:08.580Z,1.20
2023-05-12T22:36:10.045Z,1.33
2023-05-12T22:37:11.481Z,1.05
2023-05-12T22:38:12.889Z,1.15
2023-05-12T22:39:14.338Z,1.20
2023-05-12T22:40:15.813Z,1.30
2023-05-12T22:41:17.300Z,1.10
2023-05-12T22:42:18.751Z,1.48
2023-05-12T22:43:20.187Z,1.27
2023-05-12T22:44:21.636Z,1.30
2023-05-12T22:45:23.098Z,1.17
2023-05-12T22:46:24.680Z,1.10
2023-05-12T22:47:26.190Z,1.48
2023-05-12T22:48:27.788Z,1.38
2023-05-12T22:49:29.435Z,1.45
2023-05-12T22:50:30.930Z,1.23
2023-05-12T22:51:32.458Z,1.40
2023-05-12T22:52:33.977Z,1.40
2023-05-12T22:53:35.487Z,1.00
2023-05-12T22:54:37.148Z,1.40
2023-05-12T22:55:38.677Z,1.45
2023-05-12T22:56:41.260Z,1.30
2023-05-12T22:57:42.680Z,1.40
2023-05-12T22:58:44.164Z,1.27
2023-05-12T22:59:45.674Z,1.50
2023-05-12T23:00:47.559Z,1.30
2023-05-12T23:01:49.049Z,1.33
2023-05-12T23:02:50.644Z,1.52
2023-05-12T23:03:52.220Z,1.38
2023-05-12T23:04:53.792Z,1.10
2023-05-12T23:05:55.469Z,1.15
2023-05-12T23:06:56.930Z,1.65
2023-05-12T23:07:58.592Z,1.48
2023-05-12T23:09:00.130Z,1.50
2023-05-12T23:10:01.847Z,1.60
2023-05-12T23:11:03.451Z,1.48
2023-05-12T23:12:04.921Z,1.58
2023-05-12T23:13:06.386Z,1.20
2023-05-12T23:14:07.863Z,1.25
2023-05-12T23:15:09.328Z,1.38
2023-05-12T23:16:10.827Z,1.40
2023-05-12T23:17:12.492Z,1.45
2023-05-12T23:18:13.969Z,1.30
2023-05-12T23:19:15.574Z,1.58
2023-05-12T23:20:17.199Z,1.70
2023-05-12T23:21:18.728Z,1.20
2023-05-12T23:22:20.227Z,1.17
2023-05-12T23:23:21.812Z,1.30
2023-05-12T23:24:23.317Z,1.50
2023-05-12T23:25:24.888Z,1.20
2023-05-12T23:26:26.401Z,1.65
2023-05-12T23:27:27.947Z,1.80
2023-05-12T23:28:29.435Z,1.15
2023-05-12T23:29:31.003Z,1.40
2023-05-12T23:30:32.581Z,1.75
2023-05-12T23:31:34.082Z,1.35
2023-05-12T23:32:35.742Z,1.42
2023-05-12T23:33:37.559Z,1.30
2023-05-12T23:34:39.191Z,1.40
2023-05-12T23:35:40.676Z,1.20
2023-05-12T23:36:42.139Z,1.35
2023-05-12T23:37:43.745Z,1.50
2023-05-12T23:38:45.278Z,1.15
2023-05-12T23:39:46.767Z,1.50
2023-05-12T23:40:48.319Z,1.40
2023-05-12T23:41:49.959Z,1.60
2023-05-12T23:42:51.440Z,1.20
2023-05-12T23:43:52.914Z,1.35
2023-05-12T23:44:54.437Z,1.25
2023-05-12T23:45:56.157Z,1.33
2023-05-12T23:46:57.650Z,1.70
2023-05-12T23:47:59.214Z,1.52
2023-05-12T23:49:00.726Z,1.38
2023-05-12T23:50:02.291Z,1.65
2023-05-12T23:51:03.903Z,1.70
2023-05-12T23:52:05.484Z,1.95
2023-05-12T23:53:06.964Z,1.40
2023-05-12T23:54:08.459Z,1.50
2023-05-12T23:55:09.905Z,1.35
2023-05-12T23:56:11.478Z,1.42
2023-05-12T23:57:12.961Z,1.30
2023-05-12T23:58:14.389Z,1.40
2023-05-12T23:59:15.885Z,1.20
